sensor_id;sensor_type;location;lat;lon;timestamp;pressure;altitude;pressure_sealevel;temperature;humidity
60465;BME280;46314;52.392;9.758;2023-08-20T00:01:21;101348.69;;;24.17;100.00
60465;BME280;46314;52.392;9.758;2023-08-20T00:03:50;101351.59;;;24.21;100.00
60465;BME280;46314;52.392;9.758;2023-08-20T00:06:18;101342.44;;;24.08;100.00
60465;BME280;46314;52.392;9.758;2023-08-20T00:08:44;101356.97;;;24.52;100.00
60465;BME280;46314;52.392;9.758;2023-08-20T00:11:13;101351.63;;;24.47;100.00
60465;BME280;46314;52.392;9.758;2023-08-20T00:13:39;101350.38;;;23.98;100.00
60465;BME280;46314;52.392;9.758;2023-08-20T00:16:07;101351.13;;;24.18;100.00
60465;BME280;46314;52.392;9.758;2023-08-20T00:18:34;101354.13;;;23.24;100.00
60465;BME280;46314;52.392;9.758;2023-08-20T00:21:05;101351.25;;;24.03;100.00
60465;BME280;46314;52.392;9.758;2023-08-20T00:23:32;101368.28;;;24.26;100.00
60465;BME280;46314;52.392;9.758;2023-08-20T00:25:59;101366.59;;;24.48;100.00
60465;BME280;46314;52.392;9.758;2023-08-20T00:28:27;101379.00;;;24.59;100.00
60465;BME280;46314;52.392;9.758;2023-08-20T00:30:54;101373.03;;;24.45;100.00
60465;BME280;46314;52.392;9.758;2023-08-20T00:33:20;101377.84;;;24.41;100.00
60465;BME280;46314;52.392;9.758;2023-08-20T00:35:47;101381.66;;;24.06;100.00
60465;BME280;46314;52.392;9.758;2023-08-20T00:38:13;101386.09;;;24.49;100.00
60465;BME280;46314;52.392;9.758;2023-08-20T00:40:40;101388.31;;;24.13;100.00
60465;BME280;46314;52.392;9.758;2023-08-20T00:43:06;101383.94;;;23.77;100.00
60465;BME280;46314;52.392;9.758;2023-08-20T00:45:34;101387.81;;;23.88;100.00
60465;BME280;46314;52.392;9.758;2023-08-20T00:48:01;101390.84;;;23.79;100.00
60465;BME280;46314;52.392;9.758;2023-08-20T00:50:28;101393.34;;;23.42;100.00
60465;BME280;46314;52.392;9.758;2023-08-20T00:52:54;101393.41;;;23.26;100.00
60465;BME280;46314;52.392;9.758;2023-08-20T00:55:21;101396.81;;;22.64;100.00
60465;BME280;46314;52.392;9.758;2023-08-20T00:57:47;101394.28;;;23.69;100.00
60465;BME280;46314;52.392;9.758;2023-08-20T01:00:15;101393.78;;;23.63;100.00
60465;BME280;46314;52.392;9.758;2023-08-20T01:02:43;101394.91;;;23.59;100.00
60465;BME280;46314;52.392;9.758;2023-08-20T01:05:14;101398.84;;;23.74;98.81
60465;BME280;46314;52.392;9.758;2023-08-20T01:07:55;101397.63;;;24.14;93.29
60465;BME280;46314;52.392;9.758;2023-08-20T01:10:29;101394.84;;;23.94;92.25
60465;BME280;46314;52.392;9.758;2023-08-20T01:12:58;101396.63;;;23.83;91.36
60465;BME280;46314;52.392;9.758;2023-08-20T01:15:26;101392.06;;;23.98;90.53
60465;BME280;46314;52.392;9.758;2023-08-20T01:17:54;101397.53;;;23.87;87.11
60465;BME280;46314;52.392;9.758;2023-08-20T01:20:25;101390.22;;;23.67;90.18
60465;BME280;46314;52.392;9.758;2023-08-20T01:23:13;101387.94;;;23.17;93.07
60465;BME280;46314;52.392;9.758;2023-08-20T01:26:06;101386.16;;;23.29;88.89
60465;BME280;46314;52.392;9.758;2023-08-20T01:28:36;101397.69;;;23.20;90.48
60465;BME280;46314;52.392;9.758;2023-08-20T01:31:03;101387.94;;;23.17;87.36
60465;BME280;46314;52.392;9.758;2023-08-20T01:33:30;101390.34;;;23.93;85.11
60465;BME280;46314;52.392;9.758;2023-08-20T01:35:57;101384.53;;;22.92;88.07
60465;BME280;46314;52.392;9.758;2023-08-20T01:38:24;101387.94;;;22.82;88.89
60465;BME280;46314;52.392;9.758;2023-08-20T01:40:50;101394.28;;;23.30;86.41
60465;BME280;46314;52.392;9.758;2023-08-20T01:43:18;101383.56;;;22.68;88.35
60465;BME280;46314;52.392;9.758;2023-08-20T01:45:46;101388.34;;;23.00;89.17
60465;BME280;46314;52.392;9.758;2023-08-20T01:48:12;101394.28;;;23.11;87.45
60465;BME280;46314;52.392;9.758;2023-08-20T01:50:39;101389.56;;;22.67;89.62
60465;BME280;46314;52.392;9.758;2023-08-20T01:53:05;101395.13;;;22.79;87.00
60465;BME280;46314;52.392;9.758;2023-08-20T01:55:32;101394.16;;;22.72;89.73
60465;BME280;46314;52.392;9.758;2023-08-20T01:57:59;101399.97;;;22.79;88.52
60465;BME280;46314;52.392;9.758;2023-08-20T02:00:26;101395.78;;;23.24;85.14
60465;BME280;46314;52.392;9.758;2023-08-20T02:02:54;101399.88;;;23.27;85.23
60465;BME280;46314;52.392;9.758;2023-08-20T02:05:20;101384.16;;;21.98;94.21
60465;BME280;46314;52.392;9.758;2023-08-20T02:07:47;101390.75;;;22.02;96.24
60465;BME280;46314;52.392;9.758;2023-08-20T02:10:14;101387.88;;;22.62;93.03
60465;BME280;46314;52.392;9.758;2023-08-20T02:12:41;101388.41;;;22.36;93.44
60465;BME280;46314;52.392;9.758;2023-08-20T02:15:08;101384.56;;;22.28;95.29
60465;BME280;46314;52.392;9.758;2023-08-20T02:17:35;101391.25;;;22.52;92.81
60465;BME280;46314;52.392;9.758;2023-08-20T02:20:05;101393.31;;;21.79;96.92
60465;BME280;46314;52.392;9.758;2023-08-20T02:22:33;101395.66;;;22.05;95.66
60465;BME280;46314;52.392;9.758;2023-08-20T02:24:59;101391.97;;;22.33;95.79
60465;BME280;46314;52.392;9.758;2023-08-20T02:27:26;101391.47;;;21.99;97.72
60465;BME280;46314;52.392;9.758;2023-08-20T02:29:52;101389.91;;;22.02;98.68
60465;BME280;46314;52.392;9.758;2023-08-20T02:32:19;101393.47;;;21.70;100.00
60465;BME280;46314;52.392;9.758;2023-08-20T02:34:48;101401.66;;;22.48;96.00
60465;BME280;46314;52.392;9.758;2023-08-20T02:37:16;101394.25;;;22.59;95.05
60465;BME280;46314;52.392;9.758;2023-08-20T02:39:43;101403.72;;;22.67;93.54
60465;BME280;46314;52.392;9.758;2023-08-20T02:42:09;101404.09;;;22.49;95.84
60465;BME280;46314;52.392;9.758;2023-08-20T02:44:35;101414.69;;;21.92;98.41
60465;BME280;46314;52.392;9.758;2023-08-20T02:47:02;101404.00;;;21.58;100.00
60465;BME280;46314;52.392;9.758;2023-08-20T02:49:29;101400.13;;;22.06;100.00
60465;BME280;46314;52.392;9.758;2023-08-20T02:51:55;101401.97;;;22.94;94.66
60465;BME280;46314;52.392;9.758;2023-08-20T02:54:23;101409.66;;;22.46;95.76
60465;BME280;46314;52.392;9.758;2023-08-20T02:56:49;101407.81;;;21.78;100.00
60465;BME280;46314;52.392;9.758;2023-08-20T02:59:16;101411.81;;;22.21;98.74
60465;BME280;46314;52.392;9.758;2023-08-20T03:01:42;101404.94;;;22.34;97.58
60465;BME280;46314;52.392;9.758;2023-08-20T03:04:09;101403.66;;;22.03;100.00
60465;BME280;46314;52.392;9.758;2023-08-20T03:06:35;101413.88;;;21.92;99.47
60465;BME280;46314;52.392;9.758;2023-08-20T03:09:02;101412.91;;;21.88;100.00
60465;BME280;46314;52.392;9.758;2023-08-20T03:11:30;101410.34;;;22.11;99.49
60465;BME280;46314;52.392;9.758;2023-08-20T03:13:56;101410.06;;;21.72;100.00
60465;BME280;46314;52.392;9.758;2023-08-20T03:16:23;101414.72;;;22.08;100.00
60465;BME280;46314;52.392;9.758;2023-08-20T03:18:49;101414.91;;;22.16;98.89
60465;BME280;46314;52.392;9.758;2023-08-20T03:21:16;101403.56;;;22.00;100.00
60465;BME280;46314;52.392;9.758;2023-08-20T03:23:42;101413.91;;;22.08;98.22
60465;BME280;46314;52.392;9.758;2023-08-20T03:26:09;101405.50;;;22.11;97.65
60465;BME280;46314;52.392;9.758;2023-08-20T03:28:36;101409.75;;;21.89;97.78
60465;BME280;46314;52.392;9.758;2023-08-20T03:31:03;101415.69;;;22.00;97.63
60465;BME280;46314;52.392;9.758;2023-08-20T03:33:29;101411.13;;;22.72;93.18
60465;BME280;46314;52.392;9.758;2023-08-20T03:35:56;101410.53;;;22.18;95.77
60465;BME280;46314;52.392;9.758;2023-08-20T03:38:25;101412.88;;;22.44;94.83
60465;BME280;46314;52.392;9.758;2023-08-20T03:40:52;101406.38;;;21.43;100.00
60465;BME280;46314;52.392;9.758;2023-08-20T03:43:18;101412.28;;;21.79;100.00
60465;BME280;46314;52.392;9.758;2023-08-20T03:45:49;101421.78;;;21.86;100.00
60465;BME280;46314;52.392;9.758;2023-08-20T03:48:16;101415.75;;;22.32;98.82
60465;BME280;46314;52.392;9.758;2023-08-20T03:50:42;101415.19;;;22.26;99.08
60465;BME280;46314;52.392;9.758;2023-08-20T03:53:09;101416.00;;;22.11;nan
60465;BME280;46314;52.392;9.758;2023-08-20T03:55:35;101426.44;;;22.39;99.23
60465;BME280;46314;52.392;9.758;2023-08-20T03:58:02;101425.28;;;21.67;100.00
60465;BME280;46314;52.392;9.758;2023-08-20T04:00:28;101426.38;;;21.50;100.00
60465;BME280;46314;52.392;9.758;2023-08-20T04:02:56;101434.84;;;21.50;100.00
60465;BME280;46314;52.392;9.758;2023-08-20T04:05:23;101440.09;;;21.64;100.00
60465;BME280;46314;52.392;9.758;2023-08-20T04:07:49;101447.13;;;21.70;100.00
60465;BME280;46314;52.392;9.758;2023-08-20T04:10:16;101446.03;;;21.47;100.00
60465;BME280;46314;52.392;9.758;2023-08-20T04:12:42;101445.59;;;21.08;100.00
60465;BME280;46314;52.392;9.758;2023-08-20T04:15:09;101459.53;;;21.94;100.00
60465;BME280;46314;52.392;9.758;2023-08-20T04:17:36;101455.97;;;21.97;100.00
60465;BME280;46314;52.392;9.758;2023-08-20T04:20:06;101457.75;;;21.89;100.00
60465;BME280;46314;52.392;9.758;2023-08-20T04:22:33;101468.19;;;22.01;100.00
60465;BME280;46314;52.392;9.758;2023-08-20T04:24:59;101468.50;;;21.84;100.00
60465;BME280;46314;52.392;9.758;2023-08-20T04:27:29;101453.72;;;20.97;100.00
60465;BME280;46314;52.392;9.758;2023-08-20T04:29:56;101461.31;;;21.86;100.00
60465;BME280;46314;52.392;9.758;2023-08-20T04:32:22;101456.38;;;21.55;100.00
60465;BME280;46314;52.392;9.758;2023-08-20T04:34:49;101460.31;;;21.66;100.00
60465;BME280;46314;52.392;9.758;2023-08-20T04:37:17;101459.97;;;21.68;100.00
60465;BME280;46314;52.392;9.758;2023-08-20T04:39:43;101457.59;;;21.70;100.00
60465;BME280;46314;52.392;9.758;2023-08-20T04:42:10;101469.81;;;21.86;100.00
60465;BME280;46314;52.392;9.758;2023-08-20T04:44:36;101455.94;;;21.16;100.00
60465;BME280;46314;52.392;9.758;2023-08-20T04:47:03;101459.72;;;21.08;100.00
60465;BME280;46314;52.392;9.758;2023-08-20T04:49:29;101457.97;;;21.68;100.00
60465;BME280;46314;52.392;9.758;2023-08-20T04:51:56;101455.25;;;21.72;100.00
60465;BME280;46314;52.392;9.758;2023-08-20T04:54:24;101470.66;;;21.74;100.00
60465;BME280;46314;52.392;9.758;2023-08-20T04:56:50;101469.25;;;21.97;100.00
60465;BME280;46314;52.392;9.758;2023-08-20T04:59:17;101470.31;;;22.04;100.00
60465;BME280;46314;52.392;9.758;2023-08-20T05:01:43;101469.84;;;21.74;100.00
60465;BME280;46314;52.392;9.758;2023-08-20T05:04:10;101470.47;;;21.43;100.00
60465;BME280;46314;52.392;9.758;2023-08-20T05:06:36;101471.44;;;21.22;100.00
60465;BME280;46314;52.392;9.758;2023-08-20T05:09:03;101479.94;;;20.85;100.00
60465;BME280;46314;52.392;9.758;2023-08-20T05:11:31;101490.91;;;21.64;100.00
60465;BME280;46314;52.392;9.758;2023-08-20T05:13:57;101486.38;;;21.23;100.00
60465;BME280;46314;52.392;9.758;2023-08-20T05:16:24;101481.69;;;20.90;100.00
60465;BME280;46314;52.392;9.758;2023-08-20T05:18:50;101477.91;;;21.47;100.00
60465;BME280;46314;52.392;9.758;2023-08-20T05:21:17;101486.94;;;21.65;100.00
60465;BME280;46314;52.392;9.758;2023-08-20T05:23:43;101490.63;;;21.82;100.00
60465;BME280;46314;52.392;9.758;2023-08-20T05:26:10;101498.31;;;22.09;100.00
60465;BME280;46314;52.392;9.758;2023-08-20T05:28:37;101488.94;;;21.93;100.00
60465;BME280;46314;52.392;9.758;2023-08-20T05:31:04;101487.75;;;21.66;100.00
60465;BME280;46314;52.392;9.758;2023-08-20T05:33:31;101487.50;;;21.99;100.00
60465;BME280;46314;52.392;9.758;2023-08-20T05:35:57;101498.03;;;22.15;100.00
60465;BME280;46314;52.392;9.758;2023-08-20T05:38:24;101481.06;;;22.27;100.00
60465;BME280;46314;52.392;9.758;2023-08-20T05:40:50;101471.13;;;22.05;100.00
60465;BME280;46314;52.392;9.758;2023-08-20T05:43:17;101475.34;;;21.70;100.00
60465;BME280;46314;52.392;9.758;2023-08-20T05:45:45;101476.06;;;22.52;100.00
60465;BME280;46314;52.392;9.758;2023-08-20T05:48:11;101478.34;;;22.78;100.00
60465;BME280;46314;52.392;9.758;2023-08-20T05:50:38;101468.38;;;22.08;100.00
60465;BME280;46314;52.392;9.758;2023-08-20T05:53:04;101452.03;;;22.30;100.00
60465;BME280;46314;52.392;9.758;2023-08-20T05:55:30;101445.31;;;22.50;100.00
60465;BME280;46314;52.392;9.758;2023-08-20T05:57:57;101441.78;;;22.69;100.00
60465;BME280;46314;52.392;9.758;2023-08-20T06:00:24;101452.25;;;22.85;100.00
60465;BME280;46314;52.392;9.758;2023-08-20T06:02:52;101454.97;;;22.49;100.00
60465;BME280;46314;52.392;9.758;2023-08-20T06:05:18;101452.47;;;21.88;100.00
60465;BME280;46314;52.392;9.758;2023-08-20T06:07:45;101451.09;;;22.26;100.00
60465;BME280;46314;52.392;9.758;2023-08-20T06:10:11;101446.31;;;22.42;100.00
60465;BME280;46314;52.392;9.758;2023-08-20T06:12:38;101440.84;;;22.49;100.00
60465;BME280;46314;52.392;9.758;2023-08-20T06:15:05;101447.25;;;22.62;100.00
60465;BME280;46314;52.392;9.758;2023-08-20T06:17:32;101452.72;;;22.55;99.70
60465;BME280;46314;52.392;9.758;2023-08-20T06:20:00;101455.19;;;22.57;100.00
60465;BME280;46314;52.392;9.758;2023-08-20T06:22:27;101446.13;;;22.51;96.79
60465;BME280;46314;52.392;9.758;2023-08-20T06:24:53;101448.34;;;22.58;100.00
60465;BME280;46314;52.392;9.758;2023-08-20T06:27:19;101451.56;;;23.23;92.32
60465;BME280;46314;52.392;9.758;2023-08-20T06:29:46;101459.16;;;23.19;92.96
60465;BME280;46314;52.392;9.758;2023-08-20T06:32:12;101455.31;;;23.28;89.57
60465;BME280;46314;52.392;9.758;2023-08-20T06:34:39;101448.91;;;23.31;90.54
60465;BME280;46314;52.392;9.758;2023-08-20T06:37:07;101457.69;;;23.80;86.16
60465;BME280;46314;52.392;9.758;2023-08-20T06:39:33;101472.13;;;23.75;88.74
60465;BME280;46314;52.392;9.758;2023-08-20T06:42:00;101476.38;;;23.30;87.61
60465;BME280;46314;52.392;9.758;2023-08-20T06:44:26;101477.06;;;23.59;77.88
60465;BME280;46314;52.392;9.758;2023-08-20T06:46:53;101470.47;;;23.19;87.02
60465;BME280;46314;52.392;9.758;2023-08-20T06:49:19;101465.22;;;23.37;86.41
60465;BME280;46314;52.392;9.758;2023-08-20T06:51:46;101470.81;;;23.34;86.28
60465;BME280;46314;52.392;9.758;2023-08-20T06:54:14;101475.25;;;23.51;83.93
60465;BME280;46314;52.392;9.758;2023-08-20T06:56:40;101472.94;;;23.76;84.65
60465;BME280;46314;52.392;9.758;2023-08-20T06:59:07;101471.59;;;23.15;84.82
60465;BME280;46314;52.392;9.758;2023-08-20T07:01:33;101466.63;;;23.28;84.51
60465;BME280;46314;52.392;9.758;2023-08-20T07:04:00;101475.69;;;23.72;84.41
60465;BME280;46314;52.392;9.758;2023-08-20T07:06:29;101473.13;;;23.83;82.86
60465;BME280;46314;52.392;9.758;2023-08-20T07:08:56;101474.25;;;23.98;78.03
60465;BME280;46314;52.392;9.758;2023-08-20T07:11:24;101470.19;;;23.79;79.35
60465;BME280;46314;52.392;9.758;2023-08-20T07:13:50;101482.53;;;24.07;79.15
60465;BME280;46314;52.392;9.758;2023-08-20T07:16:17;101485.66;;;23.82;83.39
60465;BME280;46314;52.392;9.758;2023-08-20T07:18:43;101473.09;;;24.03;80.35
60465;BME280;46314;52.392;9.758;2023-08-20T07:21:10;101474.72;;;24.23;78.30
60465;BME280;46314;52.392;9.758;2023-08-20T07:23:36;101482.94;;;24.28;78.54
60465;BME280;46314;52.392;9.758;2023-08-20T07:26:07;101474.00;;;24.49;76.57
60465;BME280;46314;52.392;9.758;2023-08-20T07:28:36;101475.16;;;24.25;80.11
60465;BME280;46314;52.392;9.758;2023-08-20T07:31:02;101477.00;;;24.14;79.67
60465;BME280;46314;52.392;9.758;2023-08-20T07:33:31;101486.00;;;24.19;76.08
60465;BME280;46314;52.392;9.758;2023-08-20T07:35:58;101481.13;;;24.59;77.23
60465;BME280;46314;52.392;9.758;2023-08-20T07:38:24;101480.66;;;24.57;75.35
60465;BME280;46314;52.392;9.758;2023-08-20T07:40:51;101484.16;;;24.50;73.96
60465;BME280;46314;52.392;9.758;2023-08-20T07:43:17;101484.06;;;24.24;73.83
60465;BME280;46314;52.392;9.758;2023-08-20T07:45:45;101473.09;;;25.14;72.95
60465;BME280;46314;52.392;9.758;2023-08-20T07:48:11;101472.97;;;25.07;74.04
60465;BME280;46314;52.392;9.758;2023-08-20T07:50:38;101463.25;;;25.31;71.19
60465;BME280;46314;52.392;9.758;2023-08-20T07:53:04;101466.19;;;24.43;74.06
60465;BME280;46314;52.392;9.758;2023-08-20T07:55:31;101468.59;;;25.37;70.92
60465;BME280;46314;52.392;9.758;2023-08-20T07:57:57;101478.59;;;25.27;66.15
60465;BME280;46314;52.392;9.758;2023-08-20T08:00:24;101479.81;;;25.56;65.62
60465;BME280;46314;52.392;9.758;2023-08-20T08:02:53;101485.81;;;25.24;68.71
60465;BME280;46314;52.392;9.758;2023-08-20T08:05:19;101483.31;;;25.76;65.81
60465;BME280;46314;52.392;9.758;2023-08-20T08:07:46;101482.94;;;25.78;69.89
60465;BME280;46314;52.392;9.758;2023-08-20T08:10:12;101489.38;;;26.39;66.73
60465;BME280;46314;52.392;9.758;2023-08-20T08:12:39;101488.81;;;25.92;69.44
60465;BME280;46314;52.392;9.758;2023-08-20T08:15:06;101495.56;;;26.48;65.71
60465;BME280;46314;52.392;9.758;2023-08-20T08:17:32;101493.81;;;26.74;62.59
60465;BME280;46314;52.392;9.758;2023-08-20T08:20:01;101486.66;;;26.12;65.33
60465;BME280;46314;52.392;9.758;2023-08-20T08:22:27;101493.06;;;26.43;66.01
60465;BME280;46314;52.392;9.758;2023-08-20T08:24:54;101487.34;;;26.39;61.30
60465;BME280;46314;52.392;9.758;2023-08-20T08:27:20;101492.44;;;26.23;66.06
60465;BME280;46314;52.392;9.758;2023-08-20T08:29:47;101497.44;;;26.71;62.41
60465;BME280;46314;52.392;9.758;2023-08-20T08:32:13;101495.09;;;26.83;60.20
60465;BME280;46314;52.392;9.758;2023-08-20T08:34:40;101492.50;;;26.26;64.50
60465;BME280;46314;52.392;9.758;2023-08-20T08:37:08;101493.75;;;26.33;61.88
60465;BME280;46314;52.392;9.758;2023-08-20T08:39:34;101490.56;;;26.38;59.46
60465;BME280;46314;52.392;9.758;2023-08-20T08:42:03;101487.72;;;26.38;58.83
60465;BME280;46314;52.392;9.758;2023-08-20T08:44:31;101493.25;;;26.23;65.41
60465;BME280;46314;52.392;9.758;2023-08-20T08:46:58;101491.00;;;26.02;65.00
60465;BME280;46314;52.392;9.758;2023-08-20T08:49:25;101492.19;;;26.01;63.42
60465;BME280;46314;52.392;9.758;2023-08-20T08:51:53;101488.50;;;25.97;64.83
60465;BME280;46314;52.392;9.758;2023-08-20T08:54:24;101495.22;;;25.55;62.91
60465;BME280;46314;52.392;9.758;2023-08-20T08:56:50;101493.69;;;26.25;62.61
60465;BME280;46314;52.392;9.758;2023-08-20T08:59:17;101491.03;;;26.43;62.37
60465;BME280;46314;52.392;9.758;2023-08-20T09:01:44;101491.41;;;26.04;61.45
60465;BME280;46314;52.392;9.758;2023-08-20T09:04:11;101499.53;;;26.40;60.53
60465;BME280;46314;52.392;9.758;2023-08-20T09:06:47;101496.19;;;26.72;58.62
60465;BME280;46314;52.392;9.758;2023-08-20T09:09:14;101495.44;;;26.00;62.48
60465;BME280;46314;52.392;9.758;2023-08-20T09:11:42;101492.13;;;25.67;61.81
60465;BME280;46314;52.392;9.758;2023-08-20T09:14:20;101498.97;;;25.93;64.49
60465;BME280;46314;52.392;9.758;2023-08-20T09:16:47;101494.25;;;26.04;62.68
60465;BME280;46314;52.392;9.758;2023-08-20T09:19:13;101501.38;;;26.21;64.91
60465;BME280;46314;52.392;9.758;2023-08-20T09:21:45;101503.03;;;26.26;64.18
60465;BME280;46314;52.392;9.758;2023-08-20T09:24:12;101497.28;;;26.56;61.17
60465;BME280;46314;52.392;9.758;2023-08-20T09:26:38;101503.88;;;26.64;59.50
60465;BME280;46314;52.392;9.758;2023-08-20T09:29:06;101497.09;;;26.79;57.54
60465;BME280;46314;52.392;9.758;2023-08-20T09:31:37;101488.94;;;26.78;58.17
60465;BME280;46314;52.392;9.758;2023-08-20T09:34:04;101482.38;;;26.70;55.82
60465;BME280;46314;52.392;9.758;2023-08-20T09:36:32;101488.41;;;26.61;57.75
60465;BME280;46314;52.392;9.758;2023-08-20T09:38:59;101486.16;;;26.85;57.58
60465;BME280;46314;52.392;9.758;2023-08-20T09:41:25;101488.47;;;27.20;57.60
60465;BME280;46314;52.392;9.758;2023-08-20T09:43:56;101485.00;;;26.90;56.88
60465;BME280;46314;52.392;9.758;2023-08-20T09:46:26;101480.13;;;26.94;56.06
60465;BME280;46314;52.392;9.758;2023-08-20T09:48:55;101474.19;;;27.17;55.08
60465;BME280;46314;52.392;9.758;2023-08-20T09:51:25;101476.53;;;26.59;59.26
60465;BME280;46314;52.392;9.758;2023-08-20T09:53:56;101476.06;;;26.91;53.00
60465;BME280;46314;52.392;9.758;2023-08-20T09:56:27;101476.00;;;26.88;56.71
60465;BME280;46314;52.392;9.758;2023-08-20T09:58:55;101474.13;;;26.58;53.99
60465;BME280;46314;52.392;9.758;2023-08-20T10:01:24;101471.16;;;26.10;55.68
60465;BME280;46314;52.392;9.758;2023-08-20T10:03:51;101473.31;;;26.20;56.43
60465;BME280;46314;52.392;9.758;2023-08-20T10:06:18;101465.22;;;26.22;55.40
60465;BME280;46314;52.392;9.758;2023-08-20T10:08:45;101464.28;;;26.96;54.98
60465;BME280;46314;52.392;9.758;2023-08-20T10:11:12;101459.84;;;27.02;56.60
60465;BME280;46314;52.392;9.758;2023-08-20T10:13:39;101462.91;;;27.28;55.47
60465;BME280;46314;52.392;9.758;2023-08-20T10:16:05;101461.66;;;27.25;51.67
60465;BME280;46314;52.392;9.758;2023-08-20T10:18:36;101466.22;;;26.81;52.67
60465;BME280;46314;52.392;9.758;2023-08-20T10:21:04;101463.06;;;26.12;53.51
60465;BME280;46314;52.392;9.758;2023-08-20T10:23:31;101458.84;;;26.36;51.80
60465;BME280;46314;52.392;9.758;2023-08-20T10:26:07;101458.63;;;26.14;53.13
60465;BME280;46314;52.392;9.758;2023-08-20T10:28:34;101456.50;;;26.45;52.62
60465;BME280;46314;52.392;9.758;2023-08-20T10:31:05;101460.53;;;27.37;51.32
60465;BME280;46314;52.392;9.758;2023-08-20T10:33:35;101458.22;;;27.01;55.91
60465;BME280;46314;52.392;9.758;2023-08-20T10:36:13;101464.81;;;27.13;53.46
60465;BME280;46314;52.392;9.758;2023-08-20T10:38:41;101463.75;;;27.32;52.21
60465;BME280;46314;52.392;9.758;2023-08-20T10:41:08;101463.75;;;27.32;51.92
60465;BME280;46314;52.392;9.758;2023-08-20T10:43:37;101458.44;;;27.30;49.94
60465;BME280;46314;52.392;9.758;2023-08-20T10:46:08;101467.88;;;27.42;49.35
60465;BME280;46314;52.392;9.758;2023-08-20T10:48:42;101461.91;;;27.72;47.05
60465;BME280;46314;52.392;9.758;2023-08-20T10:51:12;101474.66;;;27.26;49.17
60465;BME280;46314;52.392;9.758;2023-08-20T10:53:40;101474.91;;;27.66;48.71
60465;BME280;46314;52.392;9.758;2023-08-20T10:56:14;101464.84;;;27.86;50.78
60465;BME280;46314;52.392;9.758;2023-08-20T10:58:44;101466.53;;;27.98;49.71
60465;BME280;46314;52.392;9.758;2023-08-20T11:01:29;101476.16;;;27.75;50.85
60465;BME280;46314;52.392;9.758;2023-08-20T11:03:57;101472.22;;;27.98;49.18
60465;BME280;46314;52.392;9.758;2023-08-20T11:06:24;101481.16;;;27.93;55.67
60465;BME280;46314;52.392;9.758;2023-08-20T11:08:50;101473.06;;;28.02;47.73
60465;BME280;46314;52.392;9.758;2023-08-20T11:11:18;101478.91;;;28.63;46.57
60465;BME280;46314;52.392;9.758;2023-08-20T11:13:48;101472.25;;;28.09;49.27
60465;BME280;46314;52.392;9.758;2023-08-20T11:16:14;101469.34;;;27.94;49.65
60465;BME280;46314;52.392;9.758;2023-08-20T11:18:41;101466.09;;;27.92;49.43
60465;BME280;46314;52.392;9.758;2023-08-20T11:21:09;101470.78;;;28.76;50.30
60465;BME280;46314;52.392;9.758;2023-08-20T11:23:35;101467.06;;;28.86;54.93
60465;BME280;46314;52.392;9.758;2023-08-20T11:26:02;101467.88;;;28.55;50.97
60465;BME280;46314;52.392;9.758;2023-08-20T11:28:28;101467.50;;;28.70;47.66
60465;BME280;46314;52.392;9.758;2023-08-20T11:30:55;101471.09;;;28.35;45.80
60465;BME280;46314;52.392;9.758;2023-08-20T11:33:22;101463.78;;;28.48;46.13
60465;BME280;46314;52.392;9.758;2023-08-20T11:35:49;101463.31;;;28.25;47.12
60465;BME280;46314;52.392;9.758;2023-08-20T11:38:17;101454.19;;;27.72;49.51
60465;BME280;46314;52.392;9.758;2023-08-20T11:40:44;101463.81;;;28.77;49.66
60465;BME280;46314;52.392;9.758;2023-08-20T11:43:10;101462.19;;;28.58;50.30
60465;BME280;46314;52.392;9.758;2023-08-20T11:45:44;101454.44;;;28.55;51.90
60465;BME280;46314;52.392;9.758;2023-08-20T11:48:11;101453.19;;;29.14;50.32
60465;BME280;46314;52.392;9.758;2023-08-20T11:50:37;101454.41;;;29.16;47.66
60465;BME280;46314;52.392;9.758;2023-08-20T11:53:04;101451.97;;;29.29;46.91
60465;BME280;46314;52.392;9.758;2023-08-20T11:55:32;101452.78;;;29.08;47.48
60465;BME280;46314;52.392;9.758;2023-08-20T11:57:59;101453.97;;;29.47;50.03
60465;BME280;46314;52.392;9.758;2023-08-20T12:00:28;101452.66;;;29.65;48.89
60465;BME280;46314;52.392;9.758;2023-08-20T12:02:55;101450.34;;;28.60;46.64
60465;BME280;46314;52.392;9.758;2023-08-20T12:05:22;101447.09;;;28.58;45.82
60465;BME280;46314;52.392;9.758;2023-08-20T12:07:55;101445.41;;;28.28;46.86
60465;BME280;46314;52.392;9.758;2023-08-20T12:10:22;101444.22;;;28.47;48.46
60465;BME280;46314;52.392;9.758;2023-08-20T12:12:50;101453.22;;;28.74;47.63
60465;BME280;46314;52.392;9.758;2023-08-20T12:15:18;101445.88;;;28.80;46.53
60465;BME280;46314;52.392;9.758;2023-08-20T12:17:58;101456.44;;;28.40;46.42
60465;BME280;46314;52.392;9.758;2023-08-20T12:20:27;101445.38;;;28.10;46.31
60465;BME280;46314;52.392;9.758;2023-08-20T12:22:54;101440.97;;;28.70;45.32
60465;BME280;46314;52.392;9.758;2023-08-20T12:25:21;101435.25;;;28.41;45.73
60465;BME280;46314;52.392;9.758;2023-08-20T12:27:47;101432.00;;;28.43;50.54
60465;BME280;46314;52.392;9.758;2023-08-20T12:30:18;101436.84;;;28.35;47.69
60465;BME280;46314;52.392;9.758;2023-08-20T12:32:44;101434.03;;;28.53;46.99
60465;BME280;46314;52.392;9.758;2023-08-20T12:35:11;101437.25;;;28.23;46.98
60465;BME280;46314;52.392;9.758;2023-08-20T12:37:37;101440.09;;;28.30;46.99
60465;BME280;46314;52.392;9.758;2023-08-20T12:40:05;101429.97;;;28.61;46.06
60465;BME280;46314;52.392;9.758;2023-08-20T12:42:32;101436.84;;;28.35;44.69
60465;BME280;46314;52.392;9.758;2023-08-20T12:44:58;101424.63;;;28.31;47.16
60465;BME280;46314;52.392;9.758;2023-08-20T12:47:26;101431.63;;;28.59;46.36
60465;BME280;46314;52.392;9.758;2023-08-20T12:49:53;101427.88;;;28.40;48.77